Time;durP1;ratioP1;P1;durP2;ratioP2;P2;SDS_P1;SDS_P2;PMS_P1;PMS_P2;Temp;Humidity;BMP_temperature;BMP_pressure;BME280_temperature;BME280_humidity;BME280_pressure;Samples;Min_cycle;Max_cycle;Signal;HPM_P1;HPM_P2
2023/11/15 00:01:48;;;;;;;0.00;0.00;;;10.30;99.90;;;;;;6182753;23;20005;-87
2023/11/15 00:04:14;;;;;;;0.00;0.00;;;;;;;;;;6183608;23;20013;-86
2023/11/15 00:06:40;;;;;;;0.00;0.00;;;;;;;;;;6185127;23;19997;-87
2023/11/15 00:09:06;;;;;;;0.00;0.00;;;;;;;;;;6182831;23;20012;-86
2023/11/15 00:11:33;;;;;;;0.00;0.00;;;;;;;;;;6181504;23;20516;-86
2023/11/15 00:13:59;;;;;;;0.00;0.00;;;;;;;;;;6182441;23;20287;-87
2023/11/15 00:16:25;;;;;;;0.00;0.00;;;10.30;99.90;;;;;;6182042;23;20011;-86
2023/11/15 00:18:51;;;;;;;0.00;0.00;;;;;;;;;;6181573;23;20426;-86
2023/11/15 00:21:18;;;;;;;0.00;0.00;;;;;;;;;;6183325;23;20306;-87
2023/11/15 00:23:43;;;;;;;0.00;0.00;;;10.40;99.90;;;;;;6185594;23;20055;-85
2023/11/15 00:26:09;;;;;;;0.00;0.00;;;;;;;;;;6183454;23;20413;-86
2023/11/15 00:28:35;;;;;;;0.00;0.00;;;;;;;;;;6184493;23;20009;-87
2023/11/15 00:31:02;;;;;;;0.00;0.00;;;;;;;;;;6185054;23;20001;-85
2023/11/15 00:33:28;;;;;;;0.00;0.00;;;;;;;;;;6184174;23;20016;-86
2023/11/15 00:35:54;;;;;;;0.00;0.00;;;;;;;;;;6182857;23;20084;-87
2023/11/15 00:38:21;;;;;;;0.00;0.00;;;;;;;;;;6183835;23;20440;-87
2023/11/15 00:40:47;;;;;;;0.00;0.00;;;;;;;;;;6182558;23;20008;-87
2023/11/15 00:43:15;;;;;;;0.00;0.00;;;;;;;;;;6185541;23;19997;-87
2023/11/15 00:45:40;;;;;;;0.00;0.00;;;;;;;;;;6182758;23;20084;-87
2023/11/15 00:48:06;;;;;;;0.00;0.00;;;;;;;;;;6184513;23;20369;-85
2023/11/15 00:50:32;;;;;;;0.00;0.00;;;;;;;;;;6182317;23;20435;-86
2023/11/15 00:52:58;;;;;;;0.00;0.00;;;;;;;;;;6185098;23;20012;-86
2023/11/15 00:55:24;;;;;;;0.00;0.00;;;;;;;;;;6182914;23;20079;-86
2023/11/15 00:57:51;;;;;;;0.00;0.00;;;;;;;;;;6182476;23;20035;-87
2023/11/15 01:00:27;;;;;;;0.00;0.00;;;;;;;;;;6179911;23;20008;-87
2023/11/15 01:02:58;;;;;;;0.00;0.00;;;10.20;99.90;;;;;;6182252;23;20082;-86
2023/11/15 01:05:24;;;;;;;0.00;0.00;;;;;;;;;;6183174;23;20084;-84
2023/11/15 01:07:50;;;;;;;0.00;0.00;;;;;;;;;;6183152;23;20364;-87
2023/11/15 01:10:18;;;;;;;0.00;0.00;;;10.10;99.90;;;;;;6182275;23;20001;-86
2023/11/15 01:12:44;;;;;;;0.00;0.00;;;;;;;;;;6182377;23;20013;-87
2023/11/15 01:15:11;;;;;;;0.00;0.00;;;;;;;;;;6182741;23;20408;-87
2023/11/15 01:17:37;;;;;;;0.00;0.00;;;;;;;;;;6182045;23;20033;-86
2023/11/15 01:20:05;;;;;;;0.00;0.00;;;9.80;99.90;;;;;;6182222;23;20001;-87
2023/11/15 01:22:31;;;;;;;0.00;0.00;;;;;;;;;;6182756;23;20044;-86
2023/11/15 01:24:56;;;;;;;0.00;0.00;;;;;;;;;;6183158;23;20001;-86
2023/11/15 01:27:22;;;;;;;0.00;0.00;;;;;;;;;;6183498;23;20326;-86
2023/11/15 01:29:49;;;;;;;0.00;0.00;;;;;;;;;;6183139;23;20031;-86
2023/11/15 01:32:15;;;;;;;0.00;0.00;;;;;;;;;;6181810;23;20005;-85
2023/11/15 01:34:41;;;;;;;0.00;0.00;;;9.90;99.90;;;;;;6182754;23;20135;-86
2023/11/15 01:37:07;;;;;;;0.00;0.00;;;;;;;;;;6184039;23;20097;-86
2023/11/15 01:39:33;;;;;;;0.10;0.10;;;;;;;;;;6183942;23;20007;-87
2023/11/15 01:41:59;;;;;;;0.00;0.00;;;;;;;;;;6183897;23;20032;-85
2023/11/15 01:44:25;;;;;;;0.00;0.00;;;;;;;;;;6184366;23;19997;-87
2023/11/15 01:46:52;;;;;;;0.10;0.10;;;9.80;99.90;;;;;;6182568;23;20032;-87
2023/11/15 01:49:20;;;;;;;0.00;0.00;;;9.90;99.90;;;;;;6183858;23;20006;-86
2023/11/15 01:51:47;;;;;;;0.00;0.00;;;;;;;;;;6183164;23;20005;-86
2023/11/15 01:54:15;;;;;;;0.00;0.00;;;9.90;99.90;;;;;;6183384;23;20317;-86
2023/11/15 01:56:41;;;;;;;0.00;0.00;;;;;;;;;;6184779;23;20001;-85
2023/11/15 01:59:08;;;;;;;0.00;0.00;;;9.90;99.90;;;;;;6184498;23;20041;-85
2023/11/15 02:01:35;;;;;;;0.00;0.00;;;10.00;99.90;;;;;;6189346;23;20001;-87
2023/11/15 02:04:01;;;;;;;0.00;0.00;;;;;;;;;;6183361;23;20023;-87
2023/11/15 02:06:30;;;;;;;0.00;0.00;;;9.90;99.90;;;;;;6182883;23;20007;-86
2023/11/15 02:08:56;;;;;;;0.00;0.00;;;;;;;;;;6181468;23;20088;-86
2023/11/15 02:11:22;;;;;;;0.10;0.10;;;;;;;;;;6184384;23;20523;-85
2023/11/15 02:13:48;;;;;;;0.00;0.00;;;;;;;;;;6183005;23;20012;-86
2023/11/15 02:16:14;;;;;;;0.10;0.10;;;;;;;;;;6184220;23;20001;-86
2023/11/15 02:18:40;;;;;;;0.00;0.00;;;;;;;;;;6184179;23;20023;-87
2023/11/15 02:21:07;;;;;;;0.00;0.00;;;;;;;;;;6183908;23;20060;-85
2023/11/15 02:23:42;;;;;;;0.00;0.00;;;10.00;99.90;;;;;;6183804;23;20063;-85
2023/11/15 02:26:08;;;;;;;0.00;0.00;;;;;;;;;;6182746;23;20056;-85
2023/11/15 02:28:33;;;;;;;0.00;0.00;;;9.90;99.90;;;;;;6182371;23;20001;-88
2023/11/15 02:30:59;;;;;;;0.00;0.00;;;9.90;99.90;;;;;;6183933;23;20005;-87
2023/11/15 02:33:25;;;;;;;0.00;0.00;;;;;;;;;;6183603;23;20447;-86
2023/11/15 02:35:51;;;;;;;0.10;0.10;;;;;;;;;;6183554;23;20013;-84
2023/11/15 02:38:17;;;;;;;0.00;0.00;;;;;;;;;;6182783;23;20096;-88
2023/11/15 02:40:42;;;;;;;0.00;0.00;;;;;;;;;;6186462;23;19997;-85
2023/11/15 02:43:08;;;;;;;0.00;0.00;;;;;;;;;;6184424;23;20005;-85
2023/11/15 02:45:34;;;;;;;0.10;0.10;;;;;;;;;;6185303;23;20066;-87
2023/11/15 02:48:00;;;;;;;0.00;0.00;;;;;;;;;;6185284;23;20017;-87
2023/11/15 02:50:30;;;;;;;0.00;0.00;;;10.00;99.90;;;;;;6185537;23;20039;-87
2023/11/15 02:52:56;;;;;;;0.00;0.00;;;;;;;;;;6184287;23;20009;-87
2023/11/15 02:55:22;;;;;;;0.10;0.10;;;;;;;;;;6184510;23;20520;-85
2023/11/15 02:57:47;;;;;;;0.00;0.00;;;10.10;99.90;;;;;;6182506;23;20037;-86
2023/11/15 03:00:14;;;;;;;0.00;0.00;;;10.10;99.90;;;;;;6186110;23;20128;-87
2023/11/15 03:02:39;;;;;;;0.00;0.00;;;10.10;99.90;;;;;;6184544;23;20008;-85
2023/11/15 03:05:06;;;;;;;0.00;0.00;;;10.10;99.90;;;;;;6182912;23;20017;-86
2023/11/15 03:07:31;;;;;;;0.10;0.10;;;10.10;99.90;;;;;;6182890;23;20096;-85
2023/11/15 03:09:57;;;;;;;0.10;0.10;;;10.10;99.90;;;;;;6183297;23;20360;-85
2023/11/15 03:12:23;;;;;;;0.00;0.00;;;;;;;;;;6183359;23;20103;-86
2023/11/15 03:14:49;;;;;;;0.00;0.00;;;;;;;;;;6182481;23;20027;-83
2023/11/15 03:17:16;;;;;;;0.00;0.00;;;9.90;99.90;;;;;;6183120;23;20016;-87
2023/11/15 03:19:42;;;;;;;0.00;0.00;;;;;;;;;;6184333;23;20001;-86
2023/11/15 03:22:08;;;;;;;0.00;0.00;;;;;;;;;;6183835;23;20012;-86
2023/11/15 03:24:34;;;;;;;0.00;0.00;;;;;;;;;;6183352;23;20011;-86
2023/11/15 03:27:00;;;;;;;0.00;0.00;;;9.90;99.90;;;;;;6183483;23;20068;-85
2023/11/15 03:29:25;;;;;;;0.00;0.00;;;9.80;99.90;;;;;;6185301;23;20005;-88
2023/11/15 03:31:51;;;;;;;0.00;0.00;;;;;;;;;;6183170;23;20084;-85
2023/11/15 03:34:17;;;;;;;0.00;0.00;;;;;;;;;;6183020;23;20012;-86
2023/11/15 03:36:43;;;;;;;0.10;0.10;;;;;;;;;;6183873;23;20073;-87
2023/11/15 03:39:09;;;;;;;0.00;0.00;;;;;;;;;;6183276;23;20001;-85
2023/11/15 03:41:35;;;;;;;0.03;0.03;;;;;;;;;;6185102;23;20001;-85
2023/11/15 03:44:02;;;;;;;0.00;0.00;;;;;;;;;;6184389;23;20005;-87
2023/11/15 03:46:28;;;;;;;0.00;0.00;;;;;;;;;;6185058;23;19997;-86
2023/11/15 03:48:54;;;;;;;0.00;0.00;;;;;;;;;;6184967;23;20025;-86
2023/11/15 03:51:20;;;;;;;0.00;0.00;;;;;;;;;;6185319;23;20019;-85
2023/11/15 03:53:46;;;;;;;0.00;0.00;;;;;;;;;;6182773;23;20403;-87
2023/11/15 03:56:12;;;;;;;0.10;0.10;;;;;;;;;;6182473;23;20009;-87
2023/11/15 03:58:38;;;;;;;0.10;0.10;;;;;;;;;;6185053;23;20005;-86
2023/11/15 04:01:04;;;;;;;0.00;0.00;;;;;;;;;;6184041;23;20063;-87
2023/11/15 04:03:30;;;;;;;0.00;0.00;;;;;;;;;;6184561;23;20012;-86
2023/11/15 04:05:56;;;;;;;0.00;0.00;;;9.90;99.90;;;;;;6184842;23;20008;-85
2023/11/15 04:08:22;;;;;;;0.00;0.00;;;;;;;;;;6184124;23;20004;-87
2023/11/15 04:10:48;;;;;;;0.00;0.00;;;;;;;;;;6184732;23;20432;-85
2023/11/15 04:13:14;;;;;;;0.00;0.00;;;;;;;;;;6184494;23;20455;-88
2023/11/15 04:15:40;;;;;;;0.00;0.00;;;;;;;;;;6183176;23;20083;-86
2023/11/15 04:18:07;;;;;;;0.10;0.10;;;;;;;;;;6183838;23;20440;-86
2023/11/15 04:20:32;;;;;;;0.00;0.00;;;;;;;;;;6183840;23;20471;-87
2023/11/15 04:22:58;;;;;;;0.10;0.10;;;;;;;;;;6184580;23;20009;-86
2023/11/15 04:25:24;;;;;;;0.10;0.10;;;;;;;;;;6185969;23;20001;-86
2023/11/15 04:27:51;;;;;;;0.00;0.00;;;;;;;;;;6187993;23;20038;-86
2023/11/15 04:30:17;;;;;;;0.03;0.03;;;;;;;;;;6185045;23;20625;-86
2023/11/15 04:32:45;;;;;;;0.00;0.00;;;;;;;;;;6186013;23;20360;-88
2023/11/15 04:35:11;;;;;;;0.00;0.00;;;;;;;;;;6183033;23;20095;-87
2023/11/15 04:37:38;;;;;;;0.10;0.10;;;;;;;;;;6182566;23;20005;-85
2023/11/15 04:40:07;;;;;;;0.00;0.00;;;9.70;99.90;;;;;;6185963;23;20001;-87
2023/11/15 04:42:33;;;;;;;0.08;0.08;;;9.70;99.90;;;;;;6183444;23;20012;-86
2023/11/15 04:44:59;;;;;;;0.00;0.00;;;;;;;;;;6183901;23;20001;-86
2023/11/15 04:47:25;;;;;;;0.03;0.03;;;9.70;99.90;;;;;;6185265;23;20009;-86
2023/11/15 04:49:51;;;;;;;0.00;0.00;;;;;;;;;;6185450;23;20013;-85
2023/11/15 04:52:17;;;;;;;0.00;0.00;;;;;;;;;;6185467;23;20012;-85
2023/11/15 04:54:43;;;;;;;0.00;0.00;;;;;;;;;;6186029;23;20001;-86
2023/11/15 04:57:09;;;;;;;0.00;0.00;;;;;;;;;;6186325;23;20009;-86
2023/11/15 04:59:34;;;;;;;0.00;0.00;;;9.80;99.90;;;;;;6185124;23;20081;-87
2023/11/15 05:02:01;;;;;;;0.00;0.00;;;;;;;;;;6183953;23;20084;-85
2023/11/15 05:04:28;;;;;;;0.00;0.00;;;;;;;;;;6186892;23;20448;-86
2023/11/15 05:06:54;;;;;;;0.00;0.00;;;9.90;99.90;;;;;;6183550;23;20083;-86
2023/11/15 05:09:20;;;;;;;0.00;0.00;;;;;;;;;;6183842;23;20388;-88
2023/11/15 05:11:46;;;;;;;0.00;0.00;;;;;;;;;;6185181;23;20006;-86
2023/11/15 05:14:13;;;;;;;0.00;0.00;;;;;;;;;;6185161;23;20088;-87
2023/11/15 05:16:39;;;;;;;0.00;0.00;;;;;;;;;;6185799;23;20001;-86
2023/11/15 05:19:05;;;;;;;0.00;0.00;;;;;;;;;;6185159;23;20012;-86
2023/11/15 05:21:30;;;;;;;0.00;0.00;;;10.00;99.90;;;;;;6185517;23;20001;-86
2023/11/15 05:23:56;;;;;;;0.00;0.00;;;;;;;;;;6185165;23;20087;-86
2023/11/15 05:26:22;;;;;;;0.00;0.00;;;;;;;;;;6184926;23;19997;-86
2023/11/15 05:28:49;;;;;;;0.00;0.00;;;;;;;;;;6185283;23;20084;-86
2023/11/15 05:31:16;;;;;;;0.00;0.00;;;;;;;;;;6179107;23;20341;-87
2023/11/15 05:33:42;;;;;;;0.00;0.00;;;;;;;;;;6182881;23;20034;-86
2023/11/15 05:36:08;;;;;;;0.00;0.00;;;10.00;99.90;;;;;;6183123;23;20011;-87
2023/11/15 05:38:35;;;;;;;0.00;0.00;;;;;;;;;;6183561;23;20009;-87
2023/11/15 05:41:02;;;;;;;0.00;0.00;;;;;;;;;;6183512;23;20043;-88
2023/11/15 05:43:28;;;;;;;0.00;0.00;;;;;;;;;;6182910;23;20009;-87
2023/11/15 05:45:54;;;;;;;0.00;0.00;;;;;;;;;;6181672;23;20450;-87
2023/11/15 05:48:20;;;;;;;0.00;0.00;;;;;;;;;;6182691;23;20012;-87
2023/11/15 05:50:46;;;;;;;0.00;0.00;;;;;;;;;;6182258;23;20005;-85
2023/11/15 05:53:12;;;;;;;0.00;0.00;;;;;;;;;;6180611;23;20044;-86
2023/11/15 05:55:40;;;;;;;0.10;0.10;;;;;;;;;;6182866;23;20013;-86
2023/11/15 05:58:06;;;;;;;0.10;0.10;;;;;;;;;;6185468;23;20005;-86
2023/11/15 06:00:32;;;;;;;0.08;0.08;;;;;;;;;;6183528;23;20342;-89
2023/11/15 06:03:00;;;;;;;0.00;0.00;;;9.50;99.90;;;;;;6183599;23;20008;-88
2023/11/15 06:05:26;;;;;;;0.00;0.00;;;;;;;;;;6184172;23;20060;-88
2023/11/15 06:07:52;;;;;;;0.00;0.00;;;;;;;;;;6187555;23;20005;-89
2023/11/15 06:10:18;;;;;;;0.10;0.10;;;;;;;;;;6187424;23;20075;-88
2023/11/15 06:12:44;;;;;;;0.00;0.00;;;;;;;;;;6187266;23;20005;-89
2023/11/15 06:15:10;;;;;;;0.00;0.00;;;9.40;99.90;;;;;;6187573;23;20012;-89
2023/11/15 06:17:36;;;;;;;0.00;0.00;;;;;;;;;;6186540;23;20015;-87
2023/11/15 06:20:03;;;;;;;0.00;0.00;;;;;;;;;;6187098;23;20436;-88
2023/11/15 06:22:29;;;;;;;0.00;0.00;;;;;;;;;;6186017;23;20005;-88
2023/11/15 06:24:55;;;;;;;0.00;0.00;;;;;;;;;;6186571;23;20005;-88
2023/11/15 06:27:21;;;;;;;0.00;0.00;;;;;;;;;;6186511;23;20091;-88
2023/11/15 06:29:47;;;;;;;0.05;0.05;;;9.50;99.90;;;;;;6186896;23;20445;-88
2023/11/15 06:32:16;;;;;;;0.00;0.00;;;9.30;99.90;;;;;;6186195;23;20001;-88
2023/11/15 06:34:45;;;;;;;0.00;0.00;;;9.50;99.90;;;;;;6187311;23;20011;-87
2023/11/15 06:37:13;;;;;;;0.00;0.00;;;9.40;99.90;;;;;;6186440;23;20061;-88
2023/11/15 06:39:42;;;;;;;0.00;0.00;;;9.40;99.90;;;;;;6187480;23;20400;-88
2023/11/15 06:42:10;;;;;;;0.00;0.00;;;;;;;;;;6186675;23;20005;-86
2023/11/15 06:44:36;;;;;;;0.10;0.10;;;;;;;;;;6186588;23;20059;-89
2023/11/15 06:47:02;;;;;;;0.00;0.00;;;;;;;;;;6187989;23;20052;-87
2023/11/15 06:49:28;;;;;;;0.00;0.00;;;;;;;;;;6187361;23;20567;-86
2023/11/15 06:51:55;;;;;;;0.00;0.00;;;;;;;;;;6192183;23;20032;-89
2023/11/15 06:54:21;;;;;;;0.10;0.10;;;9.40;99.90;;;;;;6190257;23;20001;-87
2023/11/15 06:56:48;;;;;;;0.00;0.00;;;;;;;;;;6188650;23;20794;-87
2023/11/15 06:59:17;;;;;;;0.00;0.00;;;9.50;99.90;;;;;;6187978;23;20463;-88
2023/11/15 07:01:48;;;;;;;0.00;0.00;;;9.50;99.90;;;;;;6189185;23;20005;-87
2023/11/15 07:04:14;;;;;;;0.00;0.00;;;;;;;;;;6188895;23;20005;-87
2023/11/15 07:06:45;;;;;;;0.00;0.00;;;9.50;99.90;;;;;;6189185;23;20079;-86
2023/11/15 07:09:12;;;;;;;0.00;0.00;;;;;;;;;;6189199;23;20031;-87
2023/11/15 07:11:44;;;;;;;0.00;0.00;;;9.50;99.90;;;;;;6188730;23;20417;-86
2023/11/15 07:14:10;;;;;;;0.10;0.10;;;;;;;;;;6188954;23;20040;-87
2023/11/15 07:16:36;;;;;;;0.00;0.00;;;;;;;;;;6189868;23;20011;-87
2023/11/15 07:19:02;;;;;;;0.00;0.00;;;;;;;;;;6186788;23;20005;-87
2023/11/15 07:21:30;;;;;;;0.00;0.00;;;;;;;;;;6186730;23;19997;-87
2023/11/15 07:23:58;;;;;;;0.00;0.00;;;;;;;;;;6187770;23;20059;-87
2023/11/15 07:26:24;;;;;;;0.00;0.00;;;;;;;;;;6187447;23;20028;-89
2023/11/15 07:28:53;;;;;;;0.00;0.00;;;;;;;;;;6187639;23;20009;-87
2023/11/15 07:31:21;;;;;;;0.00;0.00;;;;;;;;;;6187369;23;20005;-87
2023/11/15 07:33:47;;;;;;;0.00;0.00;;;;;;;;;;6187522;23;20033;-87
2023/11/15 07:36:13;;;;;;;0.00;0.00;;;9.80;99.90;;;;;;6188122;23;20023;-88
2023/11/15 07:38:39;;;;;;;0.00;0.00;;;;;;;;;;6186666;23;20005;-87
2023/11/15 07:41:05;;;;;;;0.00;0.00;;;9.80;99.90;;;;;;6187975;23;20012;-87
2023/11/15 07:43:30;;;;;;;0.00;0.00;;;;;;;;;;6186463;23;20009;-86
2023/11/15 07:45:56;;;;;;;0.00;0.00;;;9.90;99.90;;;;;;6185367;23;20039;-90
2023/11/15 07:48:22;;;;;;;0.00;0.00;;;;;;;;;;6185519;23;20012;-89
2023/11/15 07:50:48;;;;;;;0.10;0.10;;;;;;;;;;6185537;23;20029;-89
2023/11/15 07:53:14;;;;;;;0.00;0.00;;;;;;;;;;6186711;23;20005;-88
2023/11/15 07:55:42;;;;;;;0.00;0.00;;;;;;;;;;6186338;23;20005;-88
2023/11/15 07:58:08;;;;;;;0.00;0.00;;;;;;;;;;6185021;23;20067;-87
2023/11/15 08:00:35;;;;;;;0.00;0.00;;;;;;;;;;6185121;23;20084;-87
2023/11/15 08:03:04;;;;;;;0.00;0.00;;;;;;;;;;6185663;23;20080;-88
2023/11/15 08:05:30;;;;;;;0.00;0.00;;;;;;;;;;6184693;23;20336;-87
2023/11/15 08:07:57;;;;;;;0.00;0.00;;;;;;;;;;6185147;23;20088;-87
2023/11/15 08:10:23;;;;;;;0.00;0.00;;;;;;;;;;6184901;23;20340;-88
2023/11/15 08:12:49;;;;;;;0.00;0.00;;;;;;;;;;6183649;23;20016;-87
2023/11/15 08:15:16;;;;;;;0.00;0.00;;;;;;;;;;6183518;23;20005;-87
2023/11/15 08:17:48;;;;;;;0.00;0.00;;;10.40;99.90;;;;;;6182961;23;20079;-85
2023/11/15 08:20:14;;;;;;;0.00;0.00;;;;;;;;;;6185365;23;20055;-85
2023/11/15 08:22:40;;;;;;;0.00;0.00;;;;;;;;;;6184439;23;20005;-86
2023/11/15 08:25:09;;;;;;;0.00;0.00;;;10.50;99.90;;;;;;6184863;23;20001;-87
2023/11/15 08:27:38;;;;;;;0.00;0.00;;;10.50;99.90;;;;;;6158550;23;20016;-86
2023/11/15 08:30:05;;;;;;;0.00;0.00;;;10.50;99.90;;;;;;6183491;23;20005;-87
2023/11/15 08:32:33;;;;;;;0.00;0.00;;;;;;;;;;6183398;23;20069;-88
2023/11/15 08:34:59;;;;;;;0.00;0.00;;;;;;;;;;6184624;23;20009;-87
2023/11/15 08:37:25;;;;;;;0.00;0.00;;;;;;;;;;6184004;23;20020;-86
2023/11/15 08:39:51;;;;;;;0.00;0.00;;;;;;;;;;6184425;23;19997;-89
2023/11/15 08:42:17;;;;;;;0.00;0.00;;;;;;;;;;6183838;23;20000;-89
2023/11/15 08:44:43;;;;;;;0.03;0.03;;;;;;;;;;6183259;23;20012;-88
2023/11/15 08:47:10;;;;;;;0.00;0.00;;;;;;;;;;6185716;23;19997;-89
2023/11/15 08:49:39;;;;;;;0.00;0.00;;;;;;;;;;6184066;23;20023;-89
2023/11/15 08:52:05;;;;;;;0.00;0.00;;;10.40;99.90;;;;;;6184437;23;20055;-90
2023/11/15 08:54:31;;;;;;;0.00;0.00;;;;;;;;;;6182610;23;20061;-88
2023/11/15 08:56:57;;;;;;;0.00;0.00;;;;;;;;;;6182960;23;20008;-86
2023/11/15 08:59:29;;;;;;;0.00;0.00;;;;;;;;;;6183330;23;20111;-87
2023/11/15 09:01:54;;;;;;;0.00;0.00;;;;;;;;;;6183355;23;20001;-87
2023/11/15 09:04:20;;;;;;;0.03;0.03;;;;;;;;;;6180485;23;20329;-86
2023/11/15 09:06:47;;;;;;;0.00;0.00;;;;;;;;;;6181602;23;20005;-87
2023/11/15 09:09:15;;;;;;;0.00;0.00;;;10.50;99.90;;;;;;6184380;23;20115;-90
2023/11/15 09:11:43;;;;;;;0.00;0.00;;;;;;;;;;6182829;23;20105;-90
2023/11/15 09:14:09;;;;;;;0.00;0.00;;;;;;;;;;6182548;23;20068;-87
2023/11/15 09:16:36;;;;;;;0.00;0.00;;;;;;;;;;6184196;23;20387;-88
2023/11/15 09:19:04;;;;;;;0.00;0.00;;;10.40;99.90;;;;;;6184608;23;20069;-90
2023/11/15 09:21:32;;;;;;;0.00;0.00;;;;;;;;;;6184007;23;20001;-88
2023/11/15 09:23:58;;;;;;;0.00;0.00;;;10.50;99.90;;;;;;6185656;23;20008;-89
2023/11/15 09:26:24;;;;;;;0.00;0.00;;;;;;;;;;6184028;23;20009;-90
2023/11/15 09:28:51;;;;;;;0.00;0.00;;;10.60;99.90;;;;;;6183519;23;20008;-89
2023/11/15 09:31:17;;;;;;;0.00;0.00;;;;;;;;;;6184049;23;20013;-89
2023/11/15 09:33:44;;;;;;;0.00;0.00;;;;;;;;;;6183308;23;20092;-87
2023/11/15 09:36:10;;;;;;;0.00;0.00;;;10.70;99.90;;;;;;6183131;23;20501;-88
2023/11/15 09:38:37;;;;;;;0.00;0.00;;;;;;;;;;6182438;23;20009;-88
2023/11/15 09:41:10;;;;;;;0.00;0.00;;;10.70;99.90;;;;;;6185975;23;20002;-86
2023/11/15 09:43:36;;;;;;;0.00;0.00;;;;;;;;;;6182516;23;20005;-87
2023/11/15 09:46:08;;;;;;;0.00;0.00;;;10.90;99.90;;;;;;6184555;23;20021;-87
2023/11/15 09:48:34;;;;;;;0.00;0.00;;;;;;;;;;6183169;23;20005;-89
2023/11/15 09:51:01;;;;;;;0.00;0.00;;;11.00;99.90;;;;;;6179498;23;20013;-87
2023/11/15 09:53:28;;;;;;;0.00;0.00;;;11.10;99.90;;;;;;6184254;23;20009;-88
2023/11/15 09:55:54;;;;;;;0.00;0.00;;;;;;;;;;6182625;23;20436;-87
2023/11/15 09:58:21;;;;;;;0.00;0.00;;;;;;;;;;6183699;23;20039;-88
2023/11/15 10:00:47;;;;;;;0.00;0.00;;;;;;;;;;6184223;23;19997;-89
2023/11/15 10:03:19;;;;;;;0.05;0.05;;;;;;;;;;6183071;23;20001;-87
2023/11/15 10:05:57;;;;;;;0.00;0.00;;;11.30;99.90;;;;;;6181906;23;20008;-87
2023/11/15 10:08:24;;;;;;;0.00;0.00;;;;;;;;;;6182834;23;20020;-88
2023/11/15 10:11:03;;;;;;;0.00;0.00;;;11.30;99.90;;;;;;6183106;23;20024;-87
2023/11/15 10:13:30;;;;;;;0.00;0.00;;;;;;;;;;6183449;23;20092;-88
2023/11/15 10:15:55;;;;;;;0.00;0.00;;;11.30;99.90;;;;;;6182705;23;20326;-88
2023/11/15 10:18:34;;;;;;;0.00;0.00;;;11.20;99.90;;;;;;6183848;23;20028;-87
2023/11/15 10:21:09;;;;;;;0.10;0.10;;;11.30;99.90;;;;;;6181981;23;20084;-89
2023/11/15 10:23:35;;;;;;;0.00;0.00;;;;;;;;;;6183614;23;20001;-89
2023/11/15 10:26:01;;;;;;;0.00;0.00;;;;;;;;;;6183228;23;20055;-90
2023/11/15 10:28:39;;;;;;;0.00;0.00;;;11.40;99.90;;;;;;6182999;23;20013;-86
2023/11/15 10:31:13;;;;;;;0.00;0.00;;;11.40;99.90;;;;;;6182758;23;20013;-89
2023/11/15 10:33:43;;;;;;;0.00;0.00;;;;;;;;;;6183667;23;20336;-89
2023/11/15 10:36:16;;;;;;;0.00;0.00;;;11.50;99.90;;;;;;6182364;23;20016;-89
2023/11/15 10:38:51;;;;;;;0.00;0.00;;;11.50;99.90;;;;;;6182016;23;20009;-87
2023/11/15 10:41:23;;;;;;;0.00;0.00;;;11.50;99.90;;;;;;6183986;23;20087;-90
2023/11/15 10:43:50;;;;;;;0.00;0.00;;;11.60;99.90;;;;;;6183036;23;20001;-88
2023/11/15 10:46:21;;;;;;;0.00;0.00;;;11.50;99.90;;;;;;6183745;23;20361;-86
2023/11/15 10:48:49;;;;;;;0.00;0.00;;;;;;;;;;6183064;23;20286;-88
2023/11/15 10:51:20;;;;;;;0.00;0.00;;;11.40;99.90;;;;;;6183685;23;20027;-89
2023/11/15 10:53:47;;;;;;;0.00;0.00;;;;;;;;;;6185857;23;20008;-88
2023/11/15 10:56:17;;;;;;;0.00;0.00;;;11.60;99.90;;;;;;6186037;23;20012;-86
2023/11/15 10:58:51;;;;;;;0.00;0.00;;;11.50;99.90;;;;;;6184290;23;20032;-86
2023/11/15 11:01:17;;;;;;;0.00;0.00;;;;;;;;;;6183687;23;20001;-88
2023/11/15 11:03:49;;;;;;;0.00;0.00;;;11.60;99.90;;;;;;6183969;23;20015;-89
2023/11/15 11:06:21;;;;;;;0.00;0.00;;;11.50;99.90;;;;;;6184362;23;20020;-88
2023/11/15 11:09:03;;;;;;;0.00;0.00;;;11.60;99.90;;;;;;6184512;23;20059;-88
2023/11/15 11:11:40;;;;;;;0.00;0.00;;;11.40;99.90;;;;;;6187613;23;20032;-88
2023/11/15 11:14:26;;;;;;;0.00;0.00;;;11.40;99.90;;;;;;6186336;23;20009;-87
2023/11/15 11:16:56;;;;;;;0.00;0.00;;;11.40;99.90;;;;;;6184838;23;20005;-88
2023/11/15 11:19:24;;;;;;;0.00;0.00;;;;;;;;;;6184968;23;20009;-89
2023/11/15 11:22:05;;;;;;;0.00;0.00;;;11.50;99.90;;;;;;6186640;23;20067;-87
2023/11/15 13:08:27;;;;;;;0.00;0.00;;;10.80;99.90;;;;;;6152695;23;20025;-86
2023/11/15 13:10:54;;;;;;;0.00;0.00;;;;;;;;;;6127529;23;20001;-84
2023/11/15 13:13:21;;;;;;;0.00;0.00;;;;;;;;;;6152035;23;20056;-87
2023/11/15 13:15:47;;;;;;;0.00;0.00;;;;;;;;;;6152258;23;20009;-85
2023/11/15 13:18:12;;;;;;;0.00;0.00;;;10.30;99.90;;;;;;6152178;23;20436;-87
2023/11/15 13:20:38;;;;;;;0.00;0.00;;;;;;;;;;6153088;23;20084;-86
2023/11/15 13:23:04;;;;;;;0.00;0.00;;;;;;;;;;6153060;23;20333;-87
2023/11/15 13:25:31;;;;;;;0.00;0.00;;;;;;;;;;6152409;23;20001;-86
2023/11/15 13:27:57;;;;;;;0.00;0.00;;;;;;;;;;6152360;23;20084;-87
2023/11/15 13:30:26;;;;;;;0.00;0.00;;;;;;;;;;6152815;23;20602;-86
2023/11/15 13:32:52;;;;;;;0.00;0.00;;;;;;;;;;6152541;23;20005;-86
2023/11/15 13:35:17;;;;;;;0.10;0.10;;;;;;;;;;6152406;23;20010;-86
2023/11/15 13:37:43;;;;;;;0.00;0.00;;;;;;;;;;6152501;23;20001;-85
2023/11/15 13:40:10;;;;;;;0.00;0.00;;;10.20;99.90;;;;;;6151942;23;20060;-87
2023/11/15 13:42:36;;;;;;;0.00;0.00;;;;;;;;;;6153242;23;20002;-87
2023/11/15 13:45:04;;;;;;;0.00;0.00;;;10.10;99.90;;;;;;6152635;23;20006;-86
2023/11/15 13:47:30;;;;;;;0.00;0.00;;;;;;;;;;6149937;23;20009;-85
2023/11/15 13:49:56;;;;;;;0.00;0.00;;;;;;;;;;6152418;23;20048;-86
2023/11/15 13:52:22;;;;;;;0.00;0.00;;;10.10;99.90;;;;;;6152408;23;20001;-85
2023/11/15 13:54:48;;;;;;;0.00;0.00;;;;;;;;;;6152488;23;20356;-86
2023/11/15 13:57:17;;;;;;;0.00;0.00;;;10.10;99.90;;;;;;6152417;23;20021;-86
2023/11/15 13:59:43;;;;;;;0.00;0.00;;;;;;;;;;6152248;23;20021;-87
2023/11/15 14:02:09;;;;;;;0.00;0.00;;;;;;;;;;6151439;23;20005;-86
2023/11/15 14:04:35;;;;;;;0.00;0.00;;;;;;;;;;6151213;23;20005;-85
2023/11/15 14:07:01;;;;;;;0.00;0.00;;;;;;;;;;6152898;23;20014;-86
2023/11/15 14:09:29;;;;;;;0.00;0.00;;;;;;;;;;6152467;23;20472;-86
2023/11/15 14:11:56;;;;;;;0.00;0.00;;;;;;;;;;6150740;23;19997;-85
2023/11/15 14:14:24;;;;;;;0.10;0.10;;;;;;;;;;6151633;23;20072;-85
2023/11/15 14:16:52;;;;;;;0.00;0.00;;;;;;;;;;6151940;23;20005;-86
2023/11/15 14:19:19;;;;;;;0.00;0.00;;;;;;;;;;6148717;23;20006;-86
2023/11/15 14:21:45;;;;;;;0.00;0.00;;;;;;;;;;6151895;23;20086;-86
2023/11/15 14:24:11;;;;;;;0.00;0.00;;;;;;;;;;6150917;23;20002;-86
2023/11/15 14:26:37;;;;;;;0.00;0.00;;;;;;;;;;6151641;23;20005;-86
2023/11/15 14:29:07;;;;;;;0.00;0.00;;;10.20;99.90;;;;;;6153932;23;20037;-86
2023/11/15 14:31:37;;;;;;;0.00;0.00;;;11.10;99.90;;;;;;6153501;23;20268;-86
2023/11/15 14:34:03;;;;;;;0.10;0.10;;;;;;;;;;6153271;23;20088;-84
2023/11/15 14:36:29;;;;;;;0.00;0.00;;;;;;;;;;6153742;23;20006;-86
2023/11/15 14:38:55;;;;;;;0.00;0.00;;;;;;;;;;6154139;23;20013;-86
2023/11/15 14:41:21;;;;;;;0.00;0.00;;;;;;;;;;6153554;23;20001;-86
2023/11/15 14:43:47;;;;;;;0.00;0.00;;;;;;;;;;6153722;23;20060;-86
2023/11/15 14:46:16;;;;;;;0.00;0.00;;;;;;;;;;6153494;23;20006;-85
2023/11/15 14:48:42;;;;;;;0.00;0.00;;;;;;;;;;6153249;23;20012;-85
2023/11/15 14:51:08;;;;;;;0.10;0.10;;;;;;;;;;6153770;23;20332;-85
2023/11/15 14:53:51;;;;;;;0.00;0.00;;;;;;;;;;6153477;23;20005;-85
2023/11/15 14:56:17;;;;;;;0.00;0.00;;;9.90;99.90;;;;;;6154500;23;20055;-86
2023/11/15 14:58:42;;;;;;;0.00;0.00;;;;;;;;;;6154341;23;20013;-86
2023/11/15 15:01:08;;;;;;;0.00;0.00;;;;;;;;;;6155044;23;20334;-87
2023/11/15 15:03:35;;;;;;;0.05;0.05;;;;;;;;;;6154221;23;20460;-86
2023/11/15 15:06:02;;;;;;;0.00;0.00;;;;;;;;;;6154855;23;20084;-86
2023/11/15 15:08:27;;;;;;;0.00;0.00;;;;;;;;;;6154105;23;20096;-85
2023/11/15 15:10:55;;;;;;;0.00;0.00;;;9.90;99.90;;;;;;6154988;23;20009;-86
2023/11/15 15:13:21;;;;;;;0.00;0.00;;;;;;;;;;6153944;23;20010;-89
2023/11/15 15:15:46;;;;;;;0.00;0.00;;;10.00;99.90;;;;;;6154542;23;20314;-89
2023/11/15 15:18:12;;;;;;;0.00;0.00;;;;;;;;;;6152556;23;20084;-89
2023/11/15 15:20:39;;;;;;;0.00;0.00;;;;;;;;;;6153239;23;20432;-87
2023/11/15 15:23:05;;;;;;;0.00;0.00;;;9.80;99.90;;;;;;6152879;23;20004;-88
2023/11/15 15:25:31;;;;;;;0.00;0.00;;;;;;;;;;6152918;23;20002;-89
2023/11/15 15:27:57;;;;;;;0.00;0.00;;;;;;;;;;6153888;23;20002;-90
2023/11/15 15:30:32;;;;;;;0.00;0.00;;;;;;;;;;6153750;23;20001;-89
2023/11/15 15:33:00;;;;;;;0.00;0.00;;;;;;;;;;6153929;23;20004;-90
2023/11/15 15:35:26;;;;;;;0.00;0.00;;;;;;;;;;6166178;23;20006;-88
2023/11/15 15:37:53;;;;;;;0.00;0.00;;;;;;;;;;6180164;23;20021;-87
2023/11/15 15:40:22;;;;;;;0.00;0.00;;;;;;;;;;6172218;23;20012;-87
2023/11/15 15:42:48;;;;;;;0.00;0.00;;;;;;;;;;6155949;23;20009;-86
2023/11/15 15:45:15;;;;;;;0.00;0.00;;;10.00;99.90;;;;;;6155383;23;20028;-88
2023/11/15 15:47:45;;;;;;;0.00;0.00;;;10.00;99.90;;;;;;6157419;23;20032;-91
2023/11/15 15:50:11;;;;;;;0.00;0.00;;;10.00;99.90;;;;;;6156970;23;20132;-91